Darstellungsparameter: Aktuell verwendete Einstellungen:
Skalierung der Graphiken ... ?
xyx+y,   Skalierungsfaktor:      Skalierung: Modus: x, Faktor: 1
Darstellungszeitraum ... ?
Vom - - bis: - -   Zeitraum: 17.07.2009 - 17.07.2009
Min/Max/Avg-Anzeige ... ?
Zeige MMA aktuell
Zeige MMA Monat
Zeige MMA alles
Zeige --A aktuell
Zeige --A Monat
Zeige --A alles
Keine MMA-Anzeige
MMA:
Keine MMA-Graphiken
MMA-Basis: 17.07.2009 - 17.07.2009
Quicknavigation für Darstellung... ?
Tage:      1T, 2T, 3T, 5T -1T -2T -3T -5T +1T +2T +3T +5T
Wochen: 1W, 2W, 3W -1W -2W -3W +1W +2W +3W
Monate: 1M, 3M, 6M -1M -3M -6M +1M +3M +6M
Jahre:    1J, 3J, 5J, 10J -1J -3J -5J -10J +1J +3J +5J +10J
Nutze für die Darstellung ... ?
Originaldaten oder Mittelwerte auf ...
Stundenbasis Tagesbasis Wochenbasis
Monatsbasis Jahresbasis      Datenbasis: Original-Daten
Darstellen als:
Statistik (Auto) Statistik J:M      Darstellung:
Zur Graphik,    zurück zur Übersicht aller Sensoren.
 
Tabellarische Datenbersicht: ?
 
Sensor: Nr:Datum:Temp:Feuchte:Taupunkt:
Aussen-T/F 1 17-07-2009 00:00:36 21.4 C 51 % 10.85 C
2 17-07-2009 00:12:36 21.3 C 52 % 11.05 C
3 17-07-2009 00:24:36 21.2 C 52 % 10.96 C
4 17-07-2009 00:36:36 21.1 C 52 % 10.87 C
5 17-07-2009 00:48:36 21.1 C 55 % 11.71 C
6 17-07-2009 01:00:36 20.8 C 55 % 11.43 C
7 17-07-2009 01:12:36 20.7 C 55 % 11.34 C
8 17-07-2009 01:24:36 20.5 C 55 % 11.16 C
9 17-07-2009 01:36:36 20.2 C 55 % 10.88 C
10 17-07-2009 01:48:36 20.2 C 57 % 11.42 C
11 17-07-2009 02:00:37 20.1 C 56 % 11.06 C
12 17-07-2009 02:12:37 20 C 56 % 10.96 C
13 17-07-2009 02:24:37 20 C 58 % 11.49 C
14 17-07-2009 02:36:37 20 C 60 % 12 C
15 17-07-2009 02:48:37 19.8 C 58 % 11.3 C
16 17-07-2009 03:00:37 19.8 C 58 % 11.3 C
17 17-07-2009 03:12:37 19.6 C 59 % 11.37 C
18 17-07-2009 03:24:37 19.6 C 59 % 11.37 C
19 17-07-2009 03:36:37 19.7 C 61 % 11.97 C
20 17-07-2009 03:48:37 19.7 C 61 % 11.97 C
21 17-07-2009 04:00:37 19.5 C 62 % 12.03 C
22 17-07-2009 04:12:37 19.5 C 62 % 12.03 C
23 17-07-2009 04:24:37 19.5 C 63 % 12.27 C
24 17-07-2009 04:36:37 19.4 C 63 % 12.18 C
25 17-07-2009 04:48:37 19.3 C 63 % 12.09 C
Sensor: Nr:Datum:Temp:Feuchte:Taupunkt:
Aussen-T/F 26 17-07-2009 05:00:37 19 C 63 % 11.8 C
27 17-07-2009 05:12:37 19.1 C 64 % 12.14 C
28 17-07-2009 05:24:37 19.1 C 64 % 12.14 C
29 17-07-2009 05:36:37 19.1 C 65 % 12.37 C
30 17-07-2009 05:48:37 19.1 C 64 % 12.14 C
31 17-07-2009 06:00:37 19.1 C 64 % 12.14 C
32 17-07-2009 06:12:38 19.1 C 66 % 12.6 C
33 17-07-2009 06:24:38 19 C 67 % 12.74 C
34 17-07-2009 06:36:38 18.9 C 66 % 12.41 C
35 17-07-2009 06:48:38 19.2 C 66 % 12.7 C
36 17-07-2009 07:00:36 19.3 C 65 % 12.56 C
37 17-07-2009 07:12:37 19.4 C 64 % 12.42 C
38 17-07-2009 07:24:35 18.7 C 78 % 14.79 C
39 17-07-2009 07:36:35 18.5 C 82 % 15.37 C
40 17-07-2009 07:48:35 18.3 C 84 % 15.55 C
41 17-07-2009 08:00:35 18.1 C 85 % 15.54 C
42 17-07-2009 08:12:35 18 C 87 % 15.8 C
43 17-07-2009 08:24:35 18.1 C 88 % 16.08 C
44 17-07-2009 08:36:35 18.3 C 89 % 16.46 C
45 17-07-2009 08:48:35 18.2 C 88 % 16.18 C
46 17-07-2009 09:00:34 18.5 C 88 % 16.48 C
47 17-07-2009 09:12:34 18.7 C 88 % 16.67 C
48 17-07-2009 09:24:35 18.9 C 88 % 16.87 C
49 17-07-2009 09:36:34 19.1 C 85 % 16.52 C
50 17-07-2009 09:48:35 19.3 C 83 % 16.34 C
Sensor: Nr:Datum:Temp:Feuchte:Taupunkt:
Aussen-T/F 51 17-07-2009 10:00:34 20 C 79 % 16.25 C
52 17-07-2009 10:12:34 20.7 C 76 % 16.32 C
53 17-07-2009 10:24:34 20.9 C 68 % 14.77 C
54 17-07-2009 10:36:33 21.1 C 65 % 14.27 C
55 17-07-2009 10:48:34 21 C 64 % 13.93 C
56 17-07-2009 11:00:34 21.6 C 61 % 13.76 C
57 17-07-2009 11:12:34 22.8 C 57 % 13.84 C
58 17-07-2009 11:24:33 23 C 53 % 12.91 C
59 17-07-2009 11:36:34 22.3 C 53 % 12.26 C
60 17-07-2009 11:48:33 21.8 C 54 % 12.08 C
61 17-07-2009 12:00:33 21.5 C 54 % 11.81 C
62 17-07-2009 12:12:33 21.5 C 51 % 10.94 C
63 17-07-2009 12:24:32 22.1 C 49 % 10.89 C
64 17-07-2009 12:36:33 22.3 C 46 % 10.13 C
65 17-07-2009 12:48:32 23 C 43 % 9.76 C
66 17-07-2009 13:00:32 24.4 C 39 % 9.56 C
67 17-07-2009 13:12:32 23.2 C 39 % 8.49 C
68 17-07-2009 13:24:33 24.9 C 36 % 8.81 C
69 17-07-2009 13:36:32 25.4 C 33 % 7.97 C
70 17-07-2009 13:48:32 25.8 C 30 % 6.92 C
71 17-07-2009 14:00:32 25.6 C 31 % 7.23 C
72 17-07-2009 14:12:32 25.1 C 31 % 6.79 C
73 17-07-2009 14:24:32 25.3 C 31 % 6.97 C
74 17-07-2009 14:36:31 25.8 C 29 % 6.43 C
75 17-07-2009 14:48:31 26 C 28 % 6.09 C
Sensor: Nr:Datum:Temp:Feuchte:Taupunkt:
Aussen-T/F 76 17-07-2009 15:00:32 24.9 C 30 % 6.15 C
77 17-07-2009 15:12:32 24.4 C 32 % 6.65 C
78 17-07-2009 15:24:02 24.2 C 32 % 6.48 C
79 17-07-2009 15:36:02 23.9 C 33 % 6.66 C
80 17-07-2009 15:48:01 24.8 C 33 % 7.45 C
81 17-07-2009 16:00:01 24.6 C 32 % 6.82 C
82 17-07-2009 16:12:02 24.5 C 31 % 6.28 C
83 17-07-2009 16:24:01 24.5 C 32 % 6.74 C
84 17-07-2009 16:36:01 24.4 C 31 % 6.19 C
85 17-07-2009 16:48:01 23.5 C 31 % 5.41 C
86 17-07-2009 17:00:01 22.9 C 36 % 7.05 C
87 17-07-2009 17:12:01 22.7 C 37 % 7.27 C
88 17-07-2009 17:24:01 22.7 C 37 % 7.27 C
89 17-07-2009 17:36:00 22.7 C 36 % 6.87 C
90 17-07-2009 17:48:01 22.5 C 37 % 7.1 C
91 17-07-2009 18:00:01 22.3 C 34 % 5.69 C
92 17-07-2009 18:12:00 22.1 C 35 % 5.94 C
93 17-07-2009 18:24:00 22 C 34 % 5.43 C
94 17-07-2009 18:35:59 21.6 C 36 % 5.9 C
95 17-07-2009 18:48:00 21.6 C 37 % 6.3 C
96 17-07-2009 19:00:00 21.2 C 40 % 7.08 C
97 17-07-2009 19:12:59 21.1 C 41 % 7.35 C
98 17-07-2009 19:24:59 21.2 C 41 % 7.44 C
99 17-07-2009 19:36:00 21.3 C 42 % 7.88 C
100 17-07-2009 19:48:59 21 C 43 % 7.95 C
Sensor: Nr:Datum:Temp:Feuchte:Taupunkt:
Aussen-T/F 101 17-07-2009 20:00:59 20.6 C 43 % 7.59 C
102 17-07-2009 20:12:59 20.4 C 44 % 7.75 C
103 17-07-2009 20:24:59 20.2 C 46 % 8.22 C
104 17-07-2009 20:36:59 20 C 46 % 8.04 C
105 17-07-2009 20:48:58 19.7 C 49 % 8.7 C
106 17-07-2009 21:00:59 19.6 C 50 % 8.9 C
107 17-07-2009 21:12:59 19.5 C 50 % 8.81 C
108 17-07-2009 21:24:58 19.5 C 50 % 8.81 C
109 17-07-2009 21:36:58 19.5 C 49 % 8.51 C
110 17-07-2009 21:48:58 19.3 C 49 % 8.33 C
111 17-07-2009 22:00:58 19.2 C 50 % 8.53 C
112 17-07-2009 22:12:58 19 C 50 % 8.35 C
113 17-07-2009 22:24:58 18.9 C 52 % 8.84 C
114 17-07-2009 22:36:57 18.7 C 53 % 8.93 C
115 17-07-2009 22:49:59 18.6 C 55 % 9.39 C
116 17-07-2009 23:01:59 18.5 C 56 % 9.57 C
117 17-07-2009 23:13:59 18.6 C 58 % 10.18 C
118 17-07-2009 23:25:59 18.5 C 59 % 10.34 C
119 17-07-2009 23:37:59 18.6 C 59 % 10.44 C
120 17-07-2009 23:49:59 18.4 C 59 % 10.25 C

Legende:
   Min
   Max


Maximal/Minimal-Werte vom 17.07.2009 - 17.07.2009

Sensor Min Max Avg
Temp
(Aussen-T/F)
18 °C
17-07-2009  08:12:35
26 °C
17-07-2009  14:48:31
20.91 °C
Feuchte
(Aussen-T/F)
28 %
17-07-2009  14:48:31
89 %
17-07-2009  08:36:35
53.66 %
Taupunkt
(Aussen-T/F)
5.41 C
17-07-2009  16:48:01
16.87 C
17-07-2009  09:24:35
10.4 C

Die Daten stammen von einer Davis Vantage Pro 2 Wetter-Station und werden unter Linux mit der Software wview2wettercgi und aufbereitet. Alle Angaben erfolgen ohne Gewähr für ihre Vollständigkeit oder Richtigkeit.
Kontakt: Rainer Krienke krienke@uni-koblenz.de . Meine Webseiten an der Uni Koblenz oder privat.
Version: $Revision: 0.78 $